createdAt,value
2023-04-20T00:02:39.999Z,15.85
2023-04-20T00:07:41.719Z,17.38
2023-04-20T00:12:40.251Z,20.48
2023-04-20T00:17:42.026Z,18.65
2023-04-20T00:22:41.520Z,14.20
2023-04-20T00:27:41.174Z,14.65
2023-04-20T00:32:42.340Z,15.90
2023-04-20T00:37:43.642Z,15.43
2023-04-20T00:42:45.440Z,14.30
2023-04-20T00:47:46.477Z,14.18
2023-04-20T00:52:49.677Z,13.95
2023-04-20T00:57:55.148Z,15.95
2023-04-20T01:02:54.758Z,13.48
2023-04-20T01:07:53.877Z,15.63
2023-04-20T01:12:55.676Z,16.02
2023-04-20T01:17:55.371Z,16.27
2023-04-20T01:22:59.719Z,16.23
2023-04-20T01:28:13.888Z,23.92
2023-04-20T01:33:16.166Z,15.77
2023-04-20T01:38:20.289Z,15.80
2023-04-20T01:43:23.063Z,17.95
2023-04-20T01:48:22.283Z,15.30
2023-04-20T01:53:25.578Z,17.60
2023-04-20T01:58:24.584Z,15.25
2023-04-20T02:03:23.619Z,17.92
2023-04-20T02:08:24.789Z,18.40
2023-04-20T02:13:24.038Z,16.60
2023-04-20T02:18:26.091Z,18.60
2023-04-20T02:23:28.336Z,20.90
2023-04-20T02:28:29.557Z,16.75
2023-04-20T02:33:31.161Z,15.38
2023-04-20T02:38:33.326Z,23.80
2023-04-20T02:43:43.304Z,13.68
2023-04-20T02:48:48.325Z,15.15
2023-04-20T02:53:47.066Z,14.32
2023-04-20T02:58:57.278Z,19.60
2023-04-20T03:04:02.696Z,13.83
2023-04-20T03:09:12.461Z,11.82
2023-04-20T03:14:14.433Z,10.73
2023-04-20T03:19:12.424Z,11.38
2023-04-20T03:24:22.301Z,13.55
2023-04-20T03:29:22.830Z,14.57
2023-04-20T03:34:28.660Z,9.82
2023-04-20T03:39:28.198Z,11.27
2023-04-20T03:44:28.375Z,11.00
2023-04-20T03:49:43.651Z,11.88
2023-04-20T03:54:45.238Z,12.15
2023-04-20T03:59:47.096Z,13.38
2023-04-20T04:04:49.858Z,13.65
2023-04-20T04:09:48.545Z,12.05
2023-04-20T04:14:50.491Z,14.60
2023-04-20T04:19:55.273Z,14.65
2023-04-20T04:24:56.943Z,13.48
2023-04-20T04:29:58.244Z,14.10
2023-04-20T04:34:59.062Z,11.48
2023-04-20T04:40:04.495Z,18.88
2023-04-20T04:45:07.581Z,17.40
2023-04-20T04:50:12.733Z,13.45
2023-04-20T04:55:14.974Z,14.57
2023-04-20T05:05:17.595Z,16.05
2023-04-20T05:10:15.508Z,17.90
2023-04-20T05:15:16.866Z,14.35
2023-04-20T05:20:14.698Z,12.25
2023-04-20T05:25:13.977Z,12.43
2023-04-20T05:30:19.509Z,12.15
2023-04-20T12:32:19.266Z,4.30
2023-04-20T12:37:17.826Z,4.43
2023-04-20T12:42:33.729Z,3.70
2023-04-20T12:47:47.716Z,4.95
2023-04-20T12:52:46.195Z,18.40
2023-04-20T12:57:43.606Z,10.32
2023-04-20T13:02:45.649Z,9.07
2023-04-20T13:07:49.480Z,7.13
2023-04-20T13:12:52.581Z,9.50
2023-04-20T13:17:52.802Z,7.50
2023-04-20T13:22:57.741Z,6.15
2023-04-20T13:27:57.892Z,6.47
2023-04-20T13:32:56.547Z,5.95
2023-04-20T13:37:55.532Z,4.10
2023-04-20T13:42:59.483Z,3.53
2023-04-20T13:48:05.485Z,1.85
2023-04-20T13:53:07.429Z,2.75
2023-04-20T13:58:06.332Z,2.35
2023-04-20T14:03:05.685Z,2.17
2023-04-20T14:08:06.938Z,3.33
2023-04-20T14:13:07.937Z,5.07
2023-04-20T14:18:09.458Z,5.68
2023-04-20T14:23:10.461Z,3.83
2023-04-20T14:28:09.035Z,3.03
2023-04-20T14:33:07.784Z,5.03
2023-04-20T14:38:06.615Z,3.63
2023-04-20T14:43:05.412Z,3.75
2023-04-20T14:48:04.009Z,2.97
2023-04-20T14:53:05.416Z,3.10
2023-04-20T14:58:04.274Z,2.53
2023-04-20T15:03:15.486Z,3.05
2023-04-20T15:08:16.185Z,1.60
2023-04-20T15:13:29.658Z,4.35
2023-04-20T15:18:27.946Z,2.65
2023-04-20T15:23:25.424Z,3.15
2023-04-20T15:28:23.602Z,5.15
2023-04-20T15:33:26.024Z,3.70
2023-04-20T15:38:27.170Z,2.45
2023-04-20T15:43:24.923Z,6.15
2023-04-20T15:48:26.837Z,1.95
2023-04-20T15:53:25.348Z,3.70
2023-04-20T15:58:26.947Z,2.03
2023-04-20T16:03:27.488Z,1.70
2023-04-20T16:08:25.556Z,1.23
2023-04-20T16:13:22.993Z,1.02
2023-04-20T16:18:24.558Z,1.35
2023-04-20T16:23:23.205Z,1.88
2023-04-20T16:28:22.546Z,5.35
2023-04-20T16:33:20.058Z,1.75
2023-04-20T16:38:19.680Z,3.22
2023-04-20T16:43:20.728Z,2.60
2023-04-20T16:48:21.239Z,2.47
2023-04-20T16:53:19.530Z,2.50
2023-04-20T16:58:19.708Z,4.13
2023-04-20T17:03:21.111Z,2.63
2023-04-20T17:08:19.641Z,4.10
2023-04-20T17:13:18.656Z,2.60
2023-04-20T17:18:17.563Z,2.58
2023-04-20T17:23:20.821Z,3.65
2023-04-20T17:28:21.451Z,5.20
2023-04-20T17:33:22.500Z,6.75
2023-04-20T17:38:23.514Z,5.07
2023-04-20T17:43:21.903Z,7.18
2023-04-20T17:48:19.806Z,5.05
2023-04-20T17:53:18.302Z,4.50
2023-04-20T17:58:17.985Z,10.45
2023-04-20T18:03:21.422Z,4.97
2023-04-20T18:08:23.307Z,4.53
2023-04-20T18:13:20.783Z,3.72
2023-04-20T18:18:22.300Z,7.70
2023-04-20T18:23:23.789Z,3.50
2023-04-20T18:28:22.423Z,3.38
2023-04-20T18:33:23.356Z,9.98
2023-04-20T18:38:23.863Z,4.55
2023-04-20T18:43:24.658Z,8.02
2023-04-20T18:48:26.760Z,6.13
2023-04-20T18:53:29.806Z,3.67
2023-04-20T18:58:31.988Z,3.53
2023-04-20T19:03:55.320Z,6.18
2023-04-20T19:08:56.022Z,12.38
2023-04-20T19:13:59.201Z,7.63
2023-04-20T19:19:01.182Z,4.13
2023-04-20T19:24:02.595Z,4.95
2023-04-20T19:29:04.351Z,6.72
2023-04-20T19:34:06.123Z,5.55
2023-04-20T19:39:07.316Z,4.30
2023-04-20T19:44:16.449Z,9.70
2023-04-20T19:49:16.175Z,4.15
2023-04-20T19:54:17.772Z,3.55
2023-04-20T19:59:17.504Z,7.13
2023-04-20T20:04:24.183Z,3.53
2023-04-20T20:09:28.000Z,4.85
2023-04-20T20:14:26.284Z,4.50
2023-04-20T20:19:25.115Z,3.47
2023-04-20T20:24:23.496Z,2.80
2023-04-20T20:29:24.385Z,6.30
2023-04-20T20:34:24.507Z,4.90
2023-04-20T20:39:25.218Z,5.35
2023-04-20T20:44:23.180Z,6.97
2023-04-20T20:49:21.660Z,5.22
2023-04-20T20:54:19.264Z,5.32
2023-04-20T20:59:24.025Z,4.70
2023-04-20T21:04:22.410Z,4.28
2023-04-20T21:09:31.612Z,8.32
2023-04-20T21:14:29.315Z,6.82
2023-04-20T21:19:29.982Z,5.78
2023-04-20T21:24:29.627Z,4.70
2023-04-20T21:29:32.670Z,7.90
2023-04-20T21:34:31.174Z,6.17
2023-04-20T21:39:36.456Z,11.40
2023-04-20T21:44:34.074Z,6.28
2023-04-20T21:49:35.329Z,7.85
2023-04-20T21:54:36.076Z,5.70
2023-04-20T22:00:20.346Z,9.20
2023-04-20T22:05:15.270Z,4.90
2023-04-20T22:10:20.519Z,5.85
2023-04-20T22:15:26.329Z,5.07
2023-04-20T22:20:24.770Z,8.98
2023-04-20T22:25:25.336Z,3.10
2023-04-20T22:30:23.967Z,8.75
2023-04-20T22:35:23.037Z,10.15
2023-04-20T22:40:25.116Z,3.00
2023-04-20T22:45:25.584Z,3.58
2023-04-20T22:50:24.873Z,10.27
2023-04-20T22:55:25.867Z,4.45
2023-04-20T23:00:27.133Z,9.27
2023-04-20T23:05:29.113Z,5.35
2023-04-20T23:10:30.057Z,7.78
2023-04-20T23:15:32.218Z,3.72
2023-04-20T23:20:32.458Z,4.43
2023-04-20T23:25:34.333Z,3.15
2023-04-20T23:30:35.611Z,10.88
2023-04-20T23:35:37.364Z,3.95
2023-04-20T23:40:39.172Z,5.38
2023-04-20T23:45:41.008Z,4.00
2023-04-20T23:50:42.156Z,6.82
2023-04-20T23:55:42.776Z,4.20
